Barney, Iowa
Current Conditions -  °F | °C
As of 8:15 AM on Thursday 29 Jan 2015 (Local Time) from KCSQ Reporting Station
Overcast Overcast  
Wind Chill: 22°   Ceiling: 1100
Heat Index: 34°   Visibility: 9mi
Dew Point: 32°   Wind: 23mph
Humidity: 93%   Direction: 330°NNW
Pressure: 30.18"   Gusts: 31mph
Location:  41.1135°N, 94.0713°W
Report Text: KCSQ 291415Z AUTO 33020G27KT 9SM OVC011 01/00 A3018 RMK AO2
Loading
Personal Weather Stations






























Interactive Weather Map New forecast layout! Learn more

10-Day Weather Forecast

Advertisements
Track Severe Weather on mobile